createdAt,value
2018-06-05T00:02:09.624Z,7.63
2018-06-05T00:04:38.970Z,6.97
2018-06-05T00:07:08.290Z,7.80
2018-06-05T00:09:37.594Z,8.07
2018-06-05T00:12:06.867Z,7.67
2018-06-05T00:14:36.238Z,7.80
2018-06-05T00:17:05.525Z,7.93
2018-06-05T00:19:34.799Z,7.43
2018-06-05T00:22:04.100Z,8.20
2018-06-05T00:24:33.394Z,8.47
2018-06-05T00:27:02.674Z,9.00
2018-06-05T00:29:32.067Z,8.10
2018-06-05T00:32:01.470Z,8.13
2018-06-05T00:34:30.741Z,8.20
2018-06-05T00:36:59.682Z,8.40
2018-06-05T00:39:28.847Z,8.20
2018-06-05T00:41:58.149Z,8.20
2018-06-05T00:44:27.437Z,7.57
2018-06-05T00:46:56.707Z,8.27
2018-06-05T00:49:25.986Z,7.70
2018-06-05T00:52:05.401Z,8.07
2018-06-05T00:54:34.682Z,8.50
2018-06-05T00:57:03.989Z,7.73
2018-06-05T00:59:32.938Z,8.17
2018-06-05T01:02:02.079Z,8.90
2018-06-05T01:04:31.387Z,8.83
2018-06-05T01:07:00.634Z,7.80
2018-06-05T01:09:29.914Z,8.27
2018-06-05T01:11:59.170Z,8.57
2018-06-05T01:14:28.502Z,9.17
2018-06-05T01:16:57.805Z,10.00
2018-06-05T01:19:27.213Z,10.40
2018-06-05T01:21:56.577Z,9.90
2018-06-05T01:24:25.914Z,8.87
2018-06-05T01:26:55.229Z,8.93
2018-06-05T01:29:24.505Z,9.80
2018-06-05T01:31:53.761Z,10.17
2018-06-05T01:34:23.126Z,10.00
2018-06-05T01:36:52.395Z,9.67
2018-06-05T01:39:21.663Z,11.57
2018-06-05T01:41:50.974Z,10.80
2018-06-05T01:44:20.249Z,12.13
2018-06-05T01:46:49.566Z,10.60
2018-06-05T01:49:18.888Z,10.27
2018-06-05T01:51:48.172Z,9.13
2018-06-05T01:54:17.436Z,9.73
2018-06-05T01:56:46.755Z,9.47
2018-06-05T01:59:16.055Z,10.77
2018-06-05T02:01:45.001Z,10.33
2018-06-05T02:04:14.167Z,9.77
2018-06-05T02:06:43.478Z,9.80
2018-06-05T02:09:12.743Z,9.93
2018-06-05T02:11:42.063Z,9.57
2018-06-05T02:14:11.323Z,9.63
2018-06-05T02:16:40.606Z,8.87
2018-06-05T02:19:10.960Z,8.57
2018-06-05T02:21:40.391Z,9.33
2018-06-05T02:24:09.759Z,9.60
2018-06-05T02:26:39.010Z,12.33
2018-06-05T02:29:08.289Z,11.03
2018-06-05T02:31:37.558Z,10.80
2018-06-05T02:34:06.884Z,9.47
2018-06-05T02:36:36.173Z,9.67
2018-06-05T02:39:07.509Z,9.47
2018-06-05T02:41:36.784Z,10.83
2018-06-05T02:44:06.111Z,11.57
2018-06-05T02:46:35.418Z,11.47
2018-06-05T02:49:04.834Z,11.67
2018-06-05T02:51:33.769Z,10.87
2018-06-05T02:54:02.910Z,12.17
2018-06-05T02:56:32.299Z,12.47
2018-06-05T02:59:01.598Z,12.47
2018-06-05T03:01:30.898Z,13.07
2018-06-05T03:04:00.185Z,12.97
2018-06-05T03:06:29.518Z,11.70
2018-06-05T03:08:59.603Z,12.47
2018-06-05T03:11:28.905Z,13.93
2018-06-05T03:13:58.231Z,12.40
2018-06-05T03:16:27.496Z,12.10
2018-06-05T03:18:56.770Z,13.70
2018-06-05T03:21:26.124Z,13.93
2018-06-05T03:23:55.385Z,13.83
2018-06-05T03:26:24.696Z,12.30
2018-06-05T03:28:53.983Z,12.40
2018-06-05T03:31:23.307Z,12.63
2018-06-05T03:33:52.543Z,11.90
2018-06-05T03:36:21.835Z,12.60
2018-06-05T03:38:51.103Z,12.27
2018-06-05T03:41:20.495Z,13.73
2018-06-05T03:43:49.781Z,12.77
2018-06-05T03:46:19.063Z,12.33
2018-06-05T03:48:48.346Z,11.50
2018-06-05T03:51:17.613Z,11.03
2018-06-05T03:53:46.878Z,10.87
2018-06-05T03:56:16.308Z,11.93
2018-06-05T03:58:45.594Z,11.63
2018-06-05T04:01:14.838Z,11.00
2018-06-05T04:03:44.085Z,12.00
2018-06-05T04:06:13.362Z,10.87
2018-06-05T04:08:42.658Z,10.70
2018-06-05T04:11:11.918Z,10.77
2018-06-05T04:13:41.190Z,11.77
2018-06-05T04:16:10.483Z,12.17
2018-06-05T04:18:39.739Z,12.80
2018-06-05T04:21:09.015Z,11.57
2018-06-05T04:23:38.304Z,12.20
2018-06-05T04:26:07.560Z,12.20
2018-06-05T04:28:36.870Z,12.20
2018-06-05T04:31:06.166Z,13.53
2018-06-05T04:33:35.437Z,13.00
2018-06-05T04:36:04.756Z,13.50
2018-06-05T04:38:34.026Z,14.43
2018-06-05T04:41:03.331Z,13.50
2018-06-05T04:43:32.611Z,13.47
2018-06-05T04:46:02.006Z,12.30
2018-06-05T04:48:31.290Z,13.57
2018-06-05T04:51:00.549Z,12.43
2018-06-05T04:53:29.817Z,12.37
2018-06-05T04:55:59.135Z,14.00
2018-06-05T04:58:28.435Z,13.00
2018-06-05T05:00:57.738Z,13.17
2018-06-05T05:03:27.024Z,15.23
2018-06-05T05:05:56.285Z,14.77
2018-06-05T05:08:25.726Z,15.73
2018-06-05T05:10:55.017Z,14.37
2018-06-05T05:13:24.301Z,14.10
2018-06-05T05:15:53.706Z,14.47
2018-06-05T05:18:23.013Z,13.30
2018-06-05T05:20:52.322Z,15.77
2018-06-05T05:23:21.330Z,15.03
2018-06-05T05:25:50.451Z,15.00
2018-06-05T05:28:19.798Z,15.13
2018-06-05T05:30:49.273Z,13.90
2018-06-05T05:33:18.588Z,12.80
2018-06-05T05:35:47.984Z,16.07
2018-06-05T05:38:17.265Z,17.80
2018-06-05T05:41:05.703Z,20.10
2018-06-05T05:43:39.484Z,19.07
2018-06-05T05:46:25.764Z,17.90
2018-06-05T05:49:03.217Z,31.60
2018-06-05T05:51:32.485Z,28.90
2018-06-05T05:54:06.561Z,28.57
2018-06-05T05:56:39.623Z,27.70
2018-06-05T05:59:12.353Z,28.20
2018-06-05T06:01:43.337Z,25.97
2018-06-05T06:04:15.639Z,27.97
2018-06-05T06:06:44.906Z,26.67
2018-06-05T06:09:14.202Z,26.50
2018-06-05T06:11:43.474Z,26.97
2018-06-05T06:14:12.769Z,26.67
2018-06-05T06:16:42.034Z,26.37
2018-06-05T06:19:11.356Z,26.87
2018-06-05T06:21:40.651Z,26.70
2018-06-05T06:24:09.978Z,27.20
2018-06-05T06:26:39.193Z,25.67
2018-06-05T06:29:08.532Z,25.53
2018-06-05T06:31:37.790Z,28.10
2018-06-05T06:34:07.190Z,27.87
2018-06-05T06:36:36.108Z,24.97
2018-06-05T06:39:08.620Z,25.70
2018-06-05T06:41:38.550Z,25.60
2018-06-05T06:44:07.855Z,24.67
2018-06-05T06:46:37.096Z,24.30
2018-06-05T06:49:06.413Z,25.53
2018-06-05T06:51:35.671Z,25.57
2018-06-05T06:54:04.936Z,25.83
2018-06-05T06:56:34.216Z,26.20
2018-06-05T06:59:03.479Z,25.60
2018-06-05T07:01:32.764Z,26.40
2018-06-05T07:04:02.047Z,27.50
2018-06-05T07:06:31.349Z,27.80
2018-06-05T07:09:00.626Z,27.70
2018-06-05T07:11:29.899Z,28.43
2018-06-05T07:13:59.167Z,29.77
2018-06-05T07:16:28.916Z,27.93
2018-06-05T07:18:58.198Z,27.70
2018-06-05T07:21:27.473Z,28.27
2018-06-05T07:23:56.780Z,28.33
2018-06-05T07:26:25.990Z,26.83
2018-06-05T07:28:55.247Z,27.07
2018-06-05T07:31:24.207Z,26.97
2018-06-05T07:33:53.403Z,26.50
2018-06-05T07:36:22.656Z,25.07
2018-06-05T07:38:51.930Z,24.37
2018-06-05T07:41:21.206Z,23.97
2018-06-05T07:43:50.470Z,24.13
2018-06-05T07:46:19.874Z,25.60
2018-06-05T07:48:49.125Z,26.43
2018-06-05T07:51:19.851Z,27.93
2018-06-05T07:53:51.544Z,26.93
2018-06-05T07:56:27.117Z,27.70
2018-06-05T07:58:57.866Z,28.07
2018-06-05T08:01:27.129Z,25.80
2018-06-05T08:03:56.387Z,26.93
2018-06-05T08:06:26.544Z,26.60
2018-06-05T08:08:55.832Z,26.57
2018-06-05T08:11:25.107Z,27.10
2018-06-05T08:13:54.426Z,25.83
2018-06-05T08:16:23.674Z,24.67
2018-06-05T08:18:52.939Z,26.03
2018-06-05T08:21:22.194Z,25.10
2018-06-05T08:23:51.497Z,30.67
2018-06-05T08:26:20.827Z,26.73
2018-06-05T08:28:50.132Z,27.77
2018-06-05T08:31:19.381Z,28.30
2018-06-05T08:33:48.825Z,28.00
2018-06-05T08:36:18.097Z,26.67
2018-06-05T08:38:47.376Z,27.13
2018-06-05T08:41:16.617Z,24.63
2018-06-05T08:43:47.786Z,25.67
2018-06-05T08:46:17.114Z,23.07
2018-06-05T08:48:46.565Z,23.33
2018-06-05T08:51:15.870Z,24.93
2018-06-05T08:53:45.156Z,24.23
2018-06-05T08:56:14.423Z,25.57
2018-06-05T08:58:43.774Z,24.67
2018-06-05T09:01:13.055Z,24.20
2018-06-05T09:03:42.291Z,25.80
2018-06-05T09:06:11.630Z,24.87
2018-06-05T09:08:40.927Z,24.30
2018-06-05T09:11:10.174Z,28.13
2018-06-05T09:13:39.476Z,25.33
2018-06-05T09:16:08.738Z,26.40
2018-06-05T09:18:38.019Z,27.67
2018-06-05T09:21:07.349Z,26.87
2018-06-05T09:23:40.263Z,28.97
2018-06-05T09:26:09.528Z,27.43
2018-06-05T09:28:42.844Z,28.27
2018-06-05T09:31:16.555Z,29.07
2018-06-05T09:33:45.821Z,27.63
2018-06-05T09:36:15.796Z,28.80
2018-06-05T09:38:49.415Z,27.43
2018-06-05T09:41:22.050Z,27.27
2018-06-05T09:43:54.865Z,27.50
2018-06-05T09:46:24.170Z,31.10
2018-06-05T09:48:53.399Z,30.27
2018-06-05T09:51:22.670Z,30.00
2018-06-05T09:53:51.958Z,33.83
2018-06-05T09:56:21.230Z,34.07
2018-06-05T09:58:50.526Z,33.23
2018-06-05T10:01:19.789Z,33.10
2018-06-05T10:03:49.100Z,33.17
2018-06-05T10:06:18.319Z,34.80
2018-06-05T10:08:47.700Z,33.00
2018-06-05T10:11:17.010Z,35.37
2018-06-05T10:13:46.310Z,34.43
2018-06-05T10:16:17.046Z,36.30
2018-06-05T10:18:46.299Z,39.30
2018-06-05T10:21:15.578Z,36.37
2018-06-05T10:23:44.895Z,35.93
2018-06-05T10:26:14.235Z,35.87
2018-06-05T10:28:43.155Z,36.10
2018-06-05T10:31:12.335Z,35.40
2018-06-05T10:33:41.645Z,35.57
2018-06-05T10:36:11.190Z,35.30
2018-06-05T10:38:40.588Z,34.53
2018-06-05T10:41:09.909Z,35.67
2018-06-05T10:43:39.180Z,36.00
2018-06-05T10:46:08.447Z,34.73
2018-06-05T10:48:37.699Z,37.67
2018-06-05T10:51:07.143Z,36.40
2018-06-05T10:53:36.431Z,37.23
2018-06-05T10:56:08.274Z,35.60
2018-06-05T10:58:37.567Z,35.57
2018-06-05T11:01:06.862Z,35.53
2018-06-05T11:03:36.153Z,36.10
2018-06-05T11:06:06.343Z,35.87
2018-06-05T11:08:35.637Z,34.73
2018-06-05T11:11:05.070Z,34.53
2018-06-05T11:13:34.370Z,34.43
2018-06-05T11:16:03.629Z,33.10
2018-06-05T11:18:32.945Z,33.80
2018-06-05T11:21:02.205Z,34.00
2018-06-05T11:23:31.472Z,32.90
2018-06-05T11:26:00.992Z,33.37
2018-06-05T11:28:30.719Z,31.20
2018-06-05T11:31:00.260Z,33.60
2018-06-05T11:33:29.585Z,32.37
2018-06-05T11:35:58.881Z,34.00
2018-06-05T11:38:28.191Z,33.83
2018-06-05T11:40:57.621Z,33.40
2018-06-05T11:43:26.962Z,33.60
2018-06-05T11:45:56.218Z,33.77
2018-06-05T11:48:25.486Z,32.90
2018-06-05T11:51:05.086Z,32.70
2018-06-05T11:53:36.642Z,33.40
2018-06-05T11:56:12.900Z,32.70
2018-06-05T11:58:47.913Z,32.00
2018-06-05T12:01:19.146Z,30.87
2018-06-05T12:03:50.762Z,30.10
2018-06-05T12:06:25.887Z,32.50
2018-06-05T12:08:55.177Z,30.77
2018-06-05T12:11:24.470Z,30.47
2018-06-05T12:13:53.780Z,31.27
2018-06-05T12:16:23.068Z,30.87
2018-06-05T12:18:52.510Z,29.23
2018-06-05T12:21:21.804Z,29.67
2018-06-05T12:23:51.063Z,30.63
2018-06-05T12:26:20.367Z,28.40
2018-06-05T12:28:49.692Z,29.23
2018-06-05T12:31:18.958Z,29.43
2018-06-05T12:33:48.409Z,29.27
2018-06-05T12:36:17.692Z,28.43
2018-06-05T12:38:46.951Z,28.07
2018-06-05T12:41:16.443Z,28.87
2018-06-05T12:43:45.792Z,28.33
2018-06-05T12:46:15.090Z,28.20
2018-06-05T12:48:44.372Z,27.30
2018-06-05T12:51:13.638Z,28.47
2018-06-05T12:53:42.977Z,27.40
2018-06-05T12:56:12.278Z,28.10
2018-06-05T12:58:41.570Z,28.77
2018-06-05T13:01:10.998Z,27.50
2018-06-05T13:03:40.242Z,28.00
2018-06-05T13:06:09.506Z,27.50
2018-06-05T13:08:38.804Z,28.87
2018-06-05T13:11:08.115Z,28.87
2018-06-05T13:13:37.382Z,28.80
2018-06-05T13:16:06.663Z,28.53
2018-06-05T13:18:35.957Z,27.07
2018-06-05T13:21:05.238Z,26.33
2018-06-05T13:23:34.528Z,26.77
2018-06-05T13:26:03.777Z,25.67
2018-06-05T13:28:33.069Z,25.47
2018-06-05T13:31:02.343Z,24.50
2018-06-05T13:33:31.614Z,26.87
2018-06-05T13:36:00.866Z,25.43
2018-06-05T13:38:30.173Z,24.67
2018-06-05T13:40:59.438Z,24.97
2018-06-05T13:43:28.714Z,24.63
2018-06-05T13:45:57.982Z,26.57
2018-06-05T13:48:27.240Z,26.13
2018-06-05T13:50:56.493Z,24.03
2018-06-05T13:53:25.778Z,24.33
2018-06-05T13:58:18.464Z,23.67
2018-06-05T14:00:47.811Z,22.47
2018-06-05T14:03:17.071Z,23.10
2018-06-05T14:05:46.341Z,20.50
2018-06-05T14:08:15.634Z,21.07
2018-06-05T14:10:44.911Z,20.20
2018-06-05T14:13:14.183Z,21.30
2018-06-05T14:15:43.446Z,21.00
2018-06-05T14:18:12.824Z,21.23
2018-06-05T14:20:42.161Z,20.63
2018-06-05T14:23:11.420Z,21.30
2018-06-05T14:25:40.687Z,21.83
2018-06-05T14:28:09.985Z,20.93
2018-06-05T14:30:39.230Z,21.00
2018-06-05T14:33:08.546Z,22.23
2018-06-05T14:35:37.795Z,21.73
2018-06-05T14:38:06.821Z,23.23
2018-06-05T14:40:35.946Z,22.80
2018-06-05T14:43:05.225Z,21.63
2018-06-05T14:45:34.458Z,22.33
2018-06-05T14:48:03.736Z,22.00
2018-06-05T14:50:33.017Z,22.30
2018-06-05T14:53:02.256Z,20.17
2018-06-05T14:55:31.506Z,25.80
2018-06-05T14:58:00.762Z,20.93
2018-06-05T15:00:30.021Z,22.17
2018-06-05T15:02:59.283Z,21.23
2018-06-05T15:05:28.544Z,21.90
2018-06-05T15:07:57.842Z,23.30
2018-06-05T15:10:27.154Z,22.60
2018-06-05T15:12:57.284Z,21.47
2018-06-05T15:15:26.726Z,21.57
2018-06-05T15:17:56.014Z,22.07
2018-06-05T15:20:25.265Z,21.30
2018-06-05T15:22:54.514Z,21.53
2018-06-05T15:25:23.766Z,21.47
2018-06-05T15:27:53.071Z,20.07
2018-06-05T15:30:22.337Z,21.83
2018-06-05T15:32:51.588Z,20.77
2018-06-05T15:35:20.863Z,21.53
2018-06-05T15:37:50.145Z,20.90
2018-06-05T15:40:19.406Z,21.37
2018-06-05T15:42:48.651Z,21.53
2018-06-05T15:45:18.129Z,21.63
2018-06-05T15:47:47.379Z,20.97
2018-06-05T15:50:16.619Z,21.83
2018-06-05T15:52:45.881Z,20.87
2018-06-05T15:55:15.130Z,21.37
2018-06-05T15:57:44.391Z,21.07
2018-06-05T16:00:13.626Z,21.43
2018-06-05T16:02:42.930Z,21.00
2018-06-05T16:05:12.200Z,21.73
2018-06-05T16:07:41.482Z,21.37
2018-06-05T16:10:10.735Z,22.87
2018-06-05T16:12:40.022Z,20.97
2018-06-05T16:15:09.335Z,20.70
2018-06-05T16:17:38.588Z,21.73
2018-06-05T16:20:07.864Z,22.33
2018-06-05T16:22:37.775Z,21.87
2018-06-05T16:25:07.028Z,21.13
2018-06-05T16:27:36.269Z,21.97
2018-06-05T16:30:05.905Z,20.93
2018-06-05T16:33:01.804Z,20.50
2018-06-05T16:35:32.570Z,20.23
2018-06-05T16:38:06.511Z,21.63
2018-06-05T16:40:39.830Z,20.17
2018-06-05T16:43:09.084Z,21.63
2018-06-05T16:45:41.174Z,20.30
2018-06-05T16:48:15.368Z,20.80
2018-06-05T16:50:46.283Z,21.37
2018-06-05T16:53:15.599Z,20.57
2018-06-05T16:55:50.708Z,20.07
2018-06-05T16:58:22.970Z,20.37
2018-06-05T17:00:52.247Z,19.20
2018-06-05T17:03:22.146Z,19.27
2018-06-05T17:05:55.092Z,19.70
2018-06-05T17:08:27.705Z,19.97
2018-06-05T17:11:07.203Z,19.53
2018-06-05T17:13:42.850Z,20.53
2018-06-05T17:16:20.853Z,17.77
2018-06-05T17:18:50.102Z,19.33
2018-06-05T17:21:19.014Z,18.67
2018-06-05T17:23:48.175Z,19.00
2018-06-05T17:26:17.652Z,17.67
2018-06-05T17:28:46.927Z,18.47
2018-06-05T17:31:16.226Z,16.87
2018-06-05T17:33:45.495Z,17.07
2018-06-05T17:36:14.769Z,17.23
2018-06-05T17:38:44.158Z,15.50
2018-06-05T17:41:13.433Z,15.70
2018-06-05T17:43:42.720Z,15.33
2018-06-05T17:46:11.965Z,15.03
2018-06-05T17:48:41.229Z,15.20
2018-06-05T17:51:10.644Z,14.80
2018-06-05T17:53:40.071Z,14.40
2018-06-05T17:56:09.022Z,14.63
2018-06-05T17:58:38.423Z,14.40
2018-06-05T18:01:07.818Z,13.97
2018-06-05T18:03:37.086Z,13.53
2018-06-05T18:06:06.388Z,13.53
2018-06-05T18:08:35.666Z,14.40
2018-06-05T18:11:04.950Z,14.33
2018-06-05T18:13:34.413Z,13.70
2018-06-05T18:16:03.657Z,12.80
2018-06-05T18:18:33.391Z,13.10
2018-06-05T18:21:02.754Z,13.50
2018-06-05T18:23:32.028Z,12.60
2018-06-05T18:26:01.456Z,12.07
2018-06-05T18:28:30.374Z,11.23
2018-06-05T18:31:00.213Z,11.53
2018-06-05T18:33:29.885Z,13.28
2018-06-05T18:35:59.174Z,13.47
2018-06-05T18:38:28.436Z,13.60
2018-06-05T18:40:58.654Z,12.70
2018-06-05T18:43:28.750Z,12.97
2018-06-05T18:45:57.980Z,12.77
2018-06-05T18:48:27.242Z,11.60
2018-06-05T18:50:56.549Z,11.77
2018-06-05T18:53:25.922Z,12.33
2018-06-05T18:58:47.965Z,11.50
2018-06-05T19:01:17.182Z,11.50
2018-06-05T19:03:46.507Z,11.50
2018-06-05T19:06:15.847Z,11.17
2018-06-05T19:08:45.183Z,11.53
2018-06-05T19:11:14.735Z,11.47
2018-06-05T19:13:44.040Z,11.17
2018-06-05T19:16:13.341Z,11.37
2018-06-05T19:18:42.607Z,10.97
2018-06-05T19:21:11.935Z,10.63
2018-06-05T19:23:41.242Z,10.97
2018-06-05T19:26:10.528Z,10.93
2018-06-05T19:28:39.818Z,11.03
2018-06-05T19:31:09.133Z,11.10
2018-06-05T19:33:38.369Z,11.30
2018-06-05T19:36:07.679Z,11.77
2018-06-05T19:38:37.009Z,10.73
2018-06-05T19:41:07.295Z,11.53
2018-06-05T19:43:36.619Z,11.10
2018-06-05T19:46:06.072Z,11.07
2018-06-05T19:48:35.355Z,10.73
2018-06-05T19:51:04.645Z,11.20
2018-06-05T19:53:33.923Z,11.23
2018-06-05T19:56:03.189Z,10.97
2018-06-05T19:58:32.456Z,10.90
2018-06-05T20:01:01.718Z,10.80
2018-06-05T20:03:30.982Z,11.07
2018-06-05T20:06:01.815Z,10.27
2018-06-05T20:08:31.070Z,10.80
2018-06-05T20:11:00.538Z,10.57
2018-06-05T20:13:29.822Z,10.63
2018-06-05T20:15:59.345Z,10.65
2018-06-05T20:18:28.603Z,11.40
2018-06-05T20:20:57.903Z,10.28
2018-06-05T20:23:27.253Z,10.43
2018-06-05T20:25:56.543Z,10.40
2018-06-05T20:28:25.851Z,10.50
2018-06-05T20:30:55.152Z,9.97
2018-06-05T20:33:24.422Z,10.13
2018-06-05T20:35:56.539Z,11.70
2018-06-05T20:38:25.473Z,10.82
2018-06-05T20:40:54.683Z,11.23
2018-06-05T20:43:24.107Z,10.73
2018-06-05T20:45:53.368Z,10.90
2018-06-05T20:48:22.657Z,11.20
2018-06-05T20:50:51.996Z,10.63
2018-06-05T20:53:21.294Z,11.27
2018-06-05T20:55:50.683Z,10.93
2018-06-05T20:58:22.733Z,11.10
2018-06-05T21:00:52.008Z,10.20
2018-06-05T21:03:21.254Z,10.60
2018-06-05T21:05:51.774Z,11.60
2018-06-05T21:08:21.043Z,11.70
2018-06-05T21:10:50.310Z,10.97
2018-06-05T21:13:19.628Z,11.47
2018-06-05T21:15:49.113Z,12.40
2018-06-05T21:18:18.483Z,12.27
2018-06-05T21:20:47.769Z,12.50
2018-06-05T21:23:17.013Z,11.70
2018-06-05T21:25:45.973Z,9.97
2018-06-05T21:28:15.143Z,11.30
2018-06-05T21:30:44.502Z,11.00
2018-06-05T21:33:13.777Z,10.33
2018-06-05T21:35:43.126Z,10.40
2018-06-05T21:38:12.422Z,10.77
2018-06-05T21:40:41.655Z,10.80
2018-06-05T21:43:10.933Z,11.57
2018-06-05T21:45:40.210Z,11.03
2018-06-05T21:48:09.517Z,11.00
2018-06-05T21:50:38.783Z,11.53
2018-06-05T21:53:09.084Z,10.77
2018-06-05T21:55:38.363Z,10.30
2018-06-05T21:58:07.738Z,11.67
2018-06-05T22:00:37.306Z,10.83
2018-06-05T22:03:06.552Z,11.07
2018-06-05T22:05:35.855Z,10.13
2018-06-05T22:08:05.154Z,10.23
2018-06-05T22:10:34.428Z,9.80
2018-06-05T22:13:03.978Z,10.17
2018-06-05T22:15:33.212Z,10.30
2018-06-05T22:18:02.728Z,10.03
2018-06-05T22:20:32.000Z,10.30
2018-06-05T22:23:01.323Z,10.40
2018-06-05T22:25:30.619Z,10.37
2018-06-05T22:27:59.946Z,11.10
2018-06-05T22:30:29.200Z,9.70
2018-06-05T22:32:58.454Z,10.37
2018-06-05T22:35:28.310Z,10.20
2018-06-05T22:37:57.749Z,10.73
2018-06-05T22:40:27.024Z,10.70
2018-06-05T22:42:56.304Z,10.23
2018-06-05T22:45:25.569Z,10.90
2018-06-05T22:47:54.871Z,9.90
2018-06-05T22:50:24.145Z,9.90
2018-06-05T22:52:53.388Z,10.87
2018-06-05T22:55:22.330Z,10.77
2018-06-05T22:57:51.183Z,10.77
2018-06-05T23:00:23.096Z,11.40
2018-06-05T23:02:52.080Z,10.27
2018-06-05T23:05:21.225Z,11.87
2018-06-05T23:07:50.518Z,11.10
2018-06-05T23:10:19.850Z,10.53
2018-06-05T23:12:49.139Z,10.27
2018-06-05T23:15:18.514Z,11.10
2018-06-05T23:17:47.801Z,10.83
2018-06-05T23:20:17.082Z,11.43
2018-06-05T23:22:46.379Z,10.70
2018-06-05T23:25:15.667Z,10.97
2018-06-05T23:27:45.095Z,11.37
2018-06-05T23:30:14.351Z,11.00
2018-06-05T23:32:43.859Z,11.67
2018-06-05T23:35:13.117Z,11.23
2018-06-05T23:37:42.413Z,9.77
2018-06-05T23:40:11.666Z,10.97
2018-06-05T23:42:40.916Z,11.37
2018-06-05T23:45:10.378Z,11.47
2018-06-05T23:47:39.638Z,10.50
2018-06-05T23:50:08.918Z,11.10
2018-06-05T23:52:38.234Z,11.10
2018-06-05T23:55:07.507Z,11.63
2018-06-05T23:57:36.761Z,11.30
